Time;durP1;ratioP1;P1;durP2;ratioP2;P2;SDS_P1;SDS_P2;PMS_P1;PMS_P2;Temp;Humidity;BMP_temperature;BMP_pressure;BME280_temperature;BME280_humidity;BME280_pressure;Samples;Min_cycle;Max_cycle;Signal;HPM_P1;HPM_P2
2024/04/21 00:00:25;;;;;;;1.50;1.40;;;3.90;99.90;;;;;;5477260;26;20609;-75
2024/04/21 00:02:51;;;;;;;3.38;2.15;;;4.00;99.90;;;;;;5476958;26;20716;-76
2024/04/21 00:05:23;;;;;;;2.83;2.60;;;4.00;99.90;;;;;;5478090;26;20279;-75
2024/04/21 00:07:49;;;;;;;3.03;2.35;;;4.00;99.90;;;;;;5480478;26;20730;-76
2024/04/21 00:10:18;;;;;;;1.95;1.67;;;4.10;99.90;;;;;;5469962;26;20263;-76
2024/04/21 00:12:44;;;;;;;2.00;1.70;;;4.10;99.90;;;;;;5478653;26;20249;-75
2024/04/21 00:15:13;;;;;;;3.30;1.50;;;4.10;99.90;;;;;;5477733;26;20249;-76
2024/04/21 00:17:39;;;;;;;1.90;1.80;;;4.10;99.90;;;;;;5475768;26;20252;-76
2024/04/21 00:20:09;;;;;;;1.85;1.75;;;4.10;99.90;;;;;;5481487;26;20302;-75
2024/04/21 00:22:38;;;;;;;2.20;2.00;;;4.10;99.90;;;;;;5463523;26;20273;-76
2024/04/21 00:25:07;;;;;;;3.45;2.28;;;4.10;99.90;;;;;;5478614;26;20272;-76
2024/04/21 00:27:34;;;;;;;1.92;1.70;;;4.20;99.90;;;;;;5475918;26;20272;-76
2024/04/21 00:30:02;;;;;;;1.65;1.50;;;4.20;99.90;;;;;;5447800;26;20243;-76
2024/04/21 00:32:28;;;;;;;1.55;1.45;;;4.20;99.90;;;;;;5455438;26;20245;-75
2024/04/21 00:34:57;;;;;;;2.22;1.58;;;4.00;99.90;;;;;;5466933;26;20349;-76
2024/04/21 00:37:23;;;;;;;1.73;1.63;;;4.00;99.90;;;;;;5458437;26;20277;-76
2024/04/21 00:39:55;;;;;;;2.58;1.40;;;4.10;99.90;;;;;;5450554;26;20241;-75
2024/04/21 00:42:21;;;;;;;2.20;1.70;;;4.10;99.90;;;;;;5462654;26;20297;-77
2024/04/21 00:44:50;;;;;;;1.85;1.55;;;4.00;99.90;;;;;;5480514;26;20272;-76
2024/04/21 00:47:17;;;;;;;1.65;1.30;;;4.10;99.90;;;;;;5474393;26;20338;-76
2024/04/21 00:49:47;;;;;;;1.85;1.70;;;4.00;99.90;;;;;;5446612;26;20268;-76
2024/04/21 00:52:13;;;;;;;1.55;1.00;;;4.10;99.90;;;;;;5470348;26;20246;-76
2024/04/21 00:54:43;;;;;;;1.50;1.40;;;4.20;99.90;;;;;;5480583;26;20389;-76
2024/04/21 00:57:12;;;;;;;1.33;1.23;;;4.20;99.90;;;;;;5469530;26;20273;-76
2024/04/21 00:59:38;;;;;;;1.92;1.33;;;4.30;99.90;;;;;;5479785;26;20636;-76
2024/04/21 01:02:07;;;;;;;0.90;0.90;;;4.30;99.90;;;;;;5470017;26;20569;-76
2024/04/21 01:04:34;;;;;;;1.33;1.23;;;4.30;99.90;;;;;;5477575;26;20352;-76
2024/04/21 01:07:03;;;;;;;1.10;1.00;;;4.20;99.90;;;;;;5473613;26;20339;-76
2024/04/21 01:09:30;;;;;;;1.20;1.10;;;4.20;99.90;;;;;;5449644;26;20483;-76
2024/04/21 01:11:59;;;;;;;1.30;1.20;;;4.20;99.90;;;;;;5473582;26;20735;-76
2024/04/21 01:14:28;;;;;;;1.60;1.13;;;4.20;99.90;;;;;;5465079;26;20269;-76
2024/04/21 01:16:57;;;;;;;1.85;1.75;;;4.20;99.90;;;;;;5474072;26;20309;-76
2024/04/21 01:19:24;;;;;;;1.00;0.95;;;4.30;99.90;;;;;;5484581;26;20258;-75
2024/04/21 01:21:53;;;;;;;2.80;1.35;;;4.20;99.90;;;;;;5466659;26;20277;-76
2024/04/21 01:24:22;;;;;;;1.40;1.20;;;4.10;99.90;;;;;;5462496;26;20343;-76
2024/04/21 01:26:52;;;;;;;0.90;0.90;;;4.30;99.90;;;;;;5462809;26;20246;-76
2024/04/21 01:29:18;;;;;;;1.23;1.10;;;4.20;99.90;;;;;;5484473;26;20253;-75
2024/04/21 01:31:48;;;;;;;1.88;1.00;;;4.20;99.90;;;;;;5449871;26;20243;-76
2024/04/21 01:34:15;;;;;;;0.95;0.90;;;4.20;99.90;;;;;;5445529;26;20251;-75
2024/04/21 01:36:44;;;;;;;1.02;0.60;;;4.20;99.90;;;;;;5457244;26;20751;-76
2024/04/21 01:39:11;;;;;;;1.25;0.82;;;4.20;99.90;;;;;;5448781;26;20342;-76
2024/04/21 01:41:43;;;;;;;1.10;0.90;;;4.20;99.90;;;;;;5462249;26;20243;-75
2024/04/21 01:44:10;;;;;;;0.90;0.80;;;4.30;99.90;;;;;;5479524;26;20254;-76
2024/04/21 01:46:39;;;;;;;1.58;1.15;;;4.40;99.90;;;;;;5461162;26;20286;-75
2024/04/21 01:49:06;;;;;;;1.10;0.68;;;4.30;99.90;;;;;;5467622;26;20241;-75
2024/04/21 01:51:35;;;;;;;1.10;0.90;;;4.30;99.90;;;;;;5472595;26;20239;-75
2024/04/21 01:54:01;;;;;;;0.73;0.63;;;4.20;99.90;;;;;;5477256;26;20247;-75
2024/04/21 01:56:31;;;;;;;0.80;0.80;;;4.30;99.90;;;;;;5473835;26;20880;-76
2024/04/21 01:59:00;;;;;;;1.20;0.80;;;4.30;99.90;;;;;;5472956;26;20244;-76
2024/04/21 02:01:30;;;;;;;1.00;1.00;;;4.40;99.90;;;;;;5466128;26;20587;-76
2024/04/21 02:03:57;;;;;;;1.00;1.00;;;4.40;99.90;;;;;;5464195;26;20295;-76
2024/04/21 02:06:26;;;;;;;1.40;1.25;;;4.30;99.90;;;;;;5481068;26;20650;-75
2024/04/21 02:08:53;;;;;;;1.13;1.02;;;4.30;99.90;;;;;;5479684;26;20326;-75
2024/04/21 02:11:22;;;;;;;1.60;1.50;;;4.30;99.90;;;;;;5473486;26;20258;-75
2024/04/21 02:13:49;;;;;;;1.40;1.30;;;4.40;99.90;;;;;;5470455;26;20268;-75
2024/04/21 02:16:20;;;;;;;1.42;1.30;;;4.30;99.90;;;;;;5458550;26;20275;-76
2024/04/21 02:18:48;;;;;;;1.10;1.00;;;4.30;99.90;;;;;;5472113;26;20246;-76
2024/04/21 02:21:17;;;;;;;1.30;1.20;;;4.30;99.90;;;;;;5466373;26;20356;-76
2024/04/21 02:23:46;;;;;;;1.30;1.00;;;4.40;99.90;;;;;;5462226;26;20247;-76
2024/04/21 02:26:15;;;;;;;3.35;2.50;;;4.40;99.90;;;;;;5459431;26;20693;-75
2024/04/21 02:28:42;;;;;;;1.80;1.67;;;4.40;99.90;;;;;;5473415;26;20749;-75
2024/04/21 02:31:11;;;;;;;3.58;2.67;;;4.40;99.90;;;;;;5461740;26;20720;-76
2024/04/21 02:33:40;;;;;;;3.90;3.00;;;4.40;99.90;;;;;;5456931;26;20273;-76
2024/04/21 02:36:09;;;;;;;5.32;3.78;;;4.40;99.90;;;;;;5476614;26;20272;-75
2024/04/21 02:38:36;;;;;;;4.85;2.72;;;4.50;99.90;;;;;;5448625;26;20336;-76
2024/04/21 02:41:05;;;;;;;3.53;2.60;;;4.40;99.90;;;;;;5459144;26;20254;-76
2024/04/21 02:43:31;;;;;;;2.53;2.33;;;4.50;99.90;;;;;;5471623;26;20262;-75
2024/04/21 02:46:00;;;;;;;2.17;1.98;;;4.40;99.90;;;;;;5461765;26;20240;-76
2024/04/21 02:48:29;;;;;;;2.00;1.90;;;4.40;99.90;;;;;;5473757;26;20247;-77
2024/04/21 02:51:00;;;;;;;2.05;1.90;;;4.40;99.90;;;;;;5484627;26;20261;-75
2024/04/21 02:53:27;;;;;;;2.00;1.75;;;4.40;99.90;;;;;;5477971;26;20250;-75
2024/04/21 02:55:56;;;;;;;2.10;1.90;;;4.40;99.90;;;;;;5474383;26;20289;-75
2024/04/21 02:58:22;;;;;;;4.20;3.10;;;4.30;99.90;;;;;;5470669;26;20302;-76
2024/04/21 03:00:51;;;;;;;3.90;3.60;;;4.30;99.90;;;;;;5475630;26;20261;-76
2024/04/21 03:03:17;;;;;;;3.35;3.05;;;4.40;99.90;;;;;;5472533;26;20251;-76
2024/04/21 03:05:55;;;;;;;4.35;3.00;;;4.40;99.90;;;;;;5448593;26;20588;-75
2024/04/21 03:08:25;;;;;;;2.55;2.35;;;4.40;99.90;;;;;;5468459;26;20247;-75
2024/04/21 03:10:54;;;;;;;3.55;3.08;;;4.40;99.90;;;;;;5452267;26;20291;-75
2024/04/21 03:13:21;;;;;;;3.95;3.40;;;4.40;99.90;;;;;;5468366;26;20243;-75
2024/04/21 03:15:50;;;;;;;3.75;3.10;;;4.50;99.90;;;;;;5469245;26;20258;-75
2024/04/21 03:18:17;;;;;;;4.10;3.80;;;4.40;99.90;;;;;;5457437;26;20247;-75
2024/04/21 03:20:46;;;;;;;4.22;3.65;;;4.30;99.90;;;;;;5466229;26;20949;-75
2024/04/21 03:23:12;;;;;;;4.35;3.95;;;4.30;99.90;;;;;;5462581;26;20262;-75
2024/04/21 03:25:43;;;;;;;8.02;4.43;;;4.30;99.90;;;;;;5460633;26;20270;-75
2024/04/21 03:28:09;;;;;;;5.93;4.68;;;4.10;99.90;;;;;;5474999;26;20337;-75
2024/04/21 03:30:38;;;;;;;5.80;3.67;;;3.90;99.90;;;;;;5464635;26;20674;-75
2024/04/21 03:33:04;;;;;;;6.85;3.15;;;3.80;99.90;;;;;;5462301;26;20250;-76
2024/04/21 03:35:33;;;;;;;2.78;2.50;;;3.70;99.90;;;;;;5473127;26;20267;-75
2024/04/21 03:38:02;;;;;;;3.25;2.95;;;3.70;99.90;;;;;;5471601;26;20268;-75
2024/04/21 03:40:31;;;;;;;3.65;3.35;;;3.60;99.90;;;;;;5454038;26;20271;-75
2024/04/21 03:43:00;;;;;;;4.03;3.60;;;3.40;99.90;;;;;;5482567;26;20607;-75
2024/04/21 03:45:28;;;;;;;3.80;3.40;;;3.30;99.90;;;;;;5474239;26;20239;-75
2024/04/21 03:47:55;;;;;;;9.68;6.97;;;3.30;99.90;;;;;;5450623;26;20272;-75
2024/04/21 03:50:23;;;;;;;4.90;4.40;;;3.30;99.90;;;;;;5449273;26;20633;-75
2024/04/21 03:52:50;;;;;;;3.17;2.92;;;3.40;99.90;;;;;;5482063;26;20271;-75
2024/04/21 03:55:18;;;;;;;3.90;3.60;;;3.30;99.90;;;;;;5470380;26;20245;-75
2024/04/21 03:57:45;;;;;;;4.25;3.85;;;3.40;99.90;;;;;;5460505;26;20765;-75
2024/04/21 04:00:17;;;;;;;4.45;4.05;;;3.30;99.90;;;;;;5460315;26;20247;-75
2024/04/21 04:02:44;;;;;;;5.28;4.78;;;3.30;99.90;;;;;;5463284;26;20352;-75
2024/04/21 04:05:13;;;;;;;3.80;3.50;;;3.30;99.90;;;;;;5456657;26;20236;-75
2024/04/21 04:07:39;;;;;;;5.90;4.25;;;3.30;99.90;;;;;;5481502;26;20677;-75
2024/04/21 04:10:09;;;;;;;5.18;4.40;;;3.30;99.90;;;;;;5483130;26;20268;-75
2024/04/21 04:12:41;;;;;;;4.57;4.07;;;3.30;99.90;;;;;;5481405;26;20244;-75
2024/04/21 04:15:11;;;;;;;5.35;4.00;;;3.50;99.90;;;;;;5464021;26;20246;-76
2024/04/21 04:17:40;;;;;;;6.95;4.30;;;3.40;99.90;;;;;;5470825;26;20317;-75
2024/04/21 04:20:10;;;;;;;3.97;3.42;;;3.30;99.90;;;;;;5483783;26;20239;-75
2024/04/21 04:22:38;;;;;;;6.75;4.05;;;3.30;99.90;;;;;;5451361;26;20366;-75
2024/04/21 04:25:05;;;;;;;4.93;4.47;;;3.30;99.90;;;;;;5451420;26;20253;-75
2024/04/21 04:27:34;;;;;;;4.00;3.70;;;3.30;99.90;;;;;;5457595;26;20252;-75
2024/04/21 04:30:00;;;;;;;5.40;3.95;;;3.30;99.90;;;;;;5458111;26;20286;-75
2024/04/21 04:32:29;;;;;;;4.20;3.90;;;3.20;99.90;;;;;;5469335;26;20278;-75
2024/04/21 04:34:58;;;;;;;4.35;3.58;;;3.20;99.90;;;;;;5477525;26;20776;-75
2024/04/21 04:37:27;;;;;;;4.70;3.92;;;3.10;99.90;;;;;;5468064;26;20238;-75
2024/04/21 04:39:53;;;;;;;3.83;3.38;;;3.00;99.90;;;;;;5458328;26;20248;-75
2024/04/21 04:42:22;;;;;;;3.97;3.67;;;2.90;99.90;;;;;;5462692;26;20659;-75
2024/04/21 04:44:48;;;;;;;5.70;4.50;;;2.80;99.90;;;;;;5453301;26;20627;-75
2024/04/21 04:47:17;;;;;;;3.75;3.45;;;2.80;99.90;;;;;;5468231;26;20231;-75
2024/04/21 04:49:43;;;;;;;2.72;2.53;;;2.80;99.90;;;;;;5475131;26;20281;-75
2024/04/21 04:52:15;;;;;;;2.70;2.50;;;2.70;99.90;;;;;;5480690;26;20597;-75
2024/04/21 04:54:41;;;;;;;2.95;2.47;;;2.60;99.90;;;;;;5474162;26;20241;-76
2024/04/21 04:57:10;;;;;;;3.92;2.33;;;2.60;99.90;;;;;;5452746;26;20571;-75
2024/04/21 04:59:36;;;;;;;5.10;2.03;;;2.50;99.90;;;;;;5475388;26;20667;-75
2024/04/21 05:02:05;;;;;;;4.47;2.17;;;2.50;99.90;;;;;;5471965;26;20246;-76
2024/04/21 05:04:31;;;;;;;5.15;2.10;;;2.60;99.90;;;;;;5477927;26;20239;-75
2024/04/21 05:07:00;;;;;;;3.00;2.50;;;2.60;99.90;;;;;;5461594;26;20264;-76
2024/04/21 05:09:29;;;;;;;3.63;2.10;;;2.50;99.90;;;;;;5468690;26;20279;-75
2024/04/21 05:11:57;;;;;;;3.95;2.30;;;2.60;99.90;;;;;;5462806;26;20280;-75
2024/04/21 05:14:24;;;;;;;2.92;1.85;;;2.60;99.90;;;;;;5457440;26;20244;-76
2024/04/21 05:16:52;;;;;;;2.00;1.80;;;2.60;99.90;;;;;;5455171;26;20239;-76
2024/04/21 05:19:19;;;;;;;2.17;1.98;;;2.60;99.90;;;;;;5474666;26;20256;-76
2024/04/21 05:21:47;;;;;;;2.25;2.05;;;2.60;99.90;;;;;;5478864;26;20278;-76
2024/04/21 05:24:14;;;;;;;1.92;1.63;;;2.60;99.90;;;;;;5460297;26;20622;-75
2024/04/21 05:26:45;;;;;;;2.72;2.00;;;2.60;99.90;;;;;;5462689;26;20235;-75
2024/04/21 05:29:11;;;;;;;2.38;2.17;;;2.60;99.90;;;;;;5459779;26;20243;-76
2024/04/21 05:31:40;;;;;;;2.28;2.08;;;2.50;99.90;;;;;;5473511;26;20240;-76
2024/04/21 05:34:06;;;;;;;2.50;2.17;;;2.60;99.90;;;;;;5476290;26;20270;-76
2024/04/21 05:36:35;;;;;;;2.85;2.55;;;2.60;99.90;;;;;;5459234;26;20267;-76
2024/04/21 05:39:01;;;;;;;2.75;2.20;;;2.60;99.90;;;;;;5468499;26;20265;-76
2024/04/21 05:41:30;;;;;;;1.65;1.40;;;2.60;99.90;;;;;;5456971;26;20236;-76
2024/04/21 05:43:59;;;;;;;4.75;2.63;;;2.60;99.90;;;;;;5459508;26;20265;-76
2024/04/21 05:46:28;;;;;;;2.97;1.60;;;2.60;99.90;;;;;;5470079;26;20252;-76
2024/04/21 05:48:54;;;;;;;9.60;2.00;;;2.70;99.90;;;;;;5482466;26;20247;-76
2024/04/21 05:51:23;;;;;;;4.70;2.10;;;2.70;99.90;;;;;;5470180;26;20247;-76
2024/04/21 05:53:49;;;;;;;1.85;1.75;;;2.70;99.90;;;;;;5452001;26;20244;-76
2024/04/21 05:56:18;;;;;;;3.05;1.85;;;2.60;99.90;;;;;;5465289;26;20306;-75
2024/04/21 05:58:44;;;;;;;3.58;2.10;;;2.60;99.90;;;;;;5463037;26;20342;-76
2024/04/21 06:01:16;;;;;;;3.83;1.75;;;2.70;99.90;;;;;;5468064;26;20274;-76
2024/04/21 06:03:42;;;;;;;4.38;2.63;;;2.70;99.90;;;;;;5481439;26;20270;-76
2024/04/21 06:06:11;;;;;;;3.65;2.35;;;2.70;99.90;;;;;;5463709;26;20239;-76
2024/04/21 06:08:37;;;;;;;2.60;2.40;;;2.80;99.90;;;;;;5448333;26;20244;-76
2024/04/21 06:11:06;;;;;;;5.50;2.05;;;2.80;99.90;;;;;;5460938;26;20270;-76
2024/04/21 06:13:32;;;;;;;2.80;1.52;;;2.80;99.90;;;;;;5475707;26;20304;-76
2024/04/21 06:16:01;;;;;;;7.10;1.42;;;2.80;99.90;;;;;;5463483;26;20278;-77
2024/04/21 06:18:30;;;;;;;3.85;2.20;;;2.70;99.90;;;;;;5456361;26;20247;-75
2024/04/21 06:20:59;;;;;;;3.22;1.70;;;2.70;99.90;;;;;;5455496;26;20240;-74
2024/04/21 06:23:25;;;;;;;6.15;2.28;;;2.80;99.90;;;;;;5450873;26;20240;-75
2024/04/21 06:25:54;;;;;;;4.35;2.60;;;2.90;99.90;;;;;;5448698;26;20266;-75
2024/04/21 06:28:20;;;;;;;1.95;1.85;;;2.90;99.90;;;;;;5463435;26;20570;-72
2024/04/21 06:30:49;;;;;;;2.75;1.83;;;3.00;99.90;;;;;;5470646;26;20770;-83
2024/04/21 06:33:15;;;;;;;5.72;2.70;;;3.10;99.90;;;;;;5480319;26;20242;-87
2024/04/21 06:35:47;;;;;;;2.42;2.22;;;3.10;99.90;;;;;;5466977;26;20274;-77
2024/04/21 06:38:14;;;;;;;5.68;2.20;;;3.10;99.90;;;;;;5472727;26;20519;-79
2024/04/21 06:40:43;;;;;;;6.32;2.13;;;3.10;99.90;;;;;;5453598;26;20733;-78
2024/04/21 06:43:09;;;;;;;5.88;3.53;;;3.00;99.90;;;;;;5450014;26;20657;-78
2024/04/21 06:45:40;;;;;;;2.95;2.65;;;3.00;99.90;;;;;;5447741;26;20253;-78
2024/04/21 06:48:07;;;;;;;5.22;2.95;;;3.00;99.90;;;;;;5451007;26;20839;-76
2024/04/21 06:50:36;;;;;;;7.20;3.45;;;2.90;99.90;;;;;;5444909;26;20574;-75
2024/04/21 06:53:05;;;;;;;4.15;2.95;;;2.90;99.90;;;;;;5451277;26;20571;-75
2024/04/21 06:55:33;;;;;;;4.22;3.30;;;2.90;99.90;;;;;;5459674;26;20245;-73
2024/04/21 06:58:00;;;;;;;2.70;2.50;;;2.90;99.90;;;;;;5468655;26;20271;-74
2024/04/21 07:00:28;;;;;;;7.80;2.80;;;2.90;99.90;;;;;;5464180;26;20610;-74
2024/04/21 07:02:55;;;;;;;4.93;3.10;;;3.00;99.90;;;;;;5467011;26;20344;-72
2024/04/21 07:05:23;;;;;;;5.85;2.95;;;3.00;99.90;;;;;;5473674;26;20712;-73
2024/04/21 07:07:50;;;;;;;3.10;2.85;;;3.00;99.90;;;;;;5446413;26;20248;-75
2024/04/21 07:10:22;;;;;;;4.63;2.50;;;3.10;99.90;;;;;;5464412;26;20240;-76
2024/04/21 07:12:55;;;;;;;3.50;2.83;;;3.10;99.90;;;;;;5456236;26;20286;-75
2024/04/21 07:15:24;;;;;;;8.50;3.88;;;4.00;99.90;;;;;;5466814;26;20306;-76
2024/04/21 07:17:50;;;;;;;7.75;4.13;;;3.20;99.90;;;;;;5460003;26;20304;-75
2024/04/21 07:20:21;;;;;;;4.30;2.58;;;3.20;99.90;;;;;;5460865;26;20251;-75
2024/04/21 07:22:47;;;;;;;4.78;2.88;;;3.20;99.90;;;;;;5461200;26;20267;-75
2024/04/21 07:25:17;;;;;;;3.17;2.65;;;3.10;99.90;;;;;;5456927;26;20260;-75
2024/04/21 07:27:46;;;;;;;3.83;2.42;;;3.10;99.90;;;;;;5460293;26;20277;-75
2024/04/21 07:30:14;;;;;;;5.85;3.20;;;3.30;99.90;;;;;;5447183;26;20247;-75
2024/04/21 07:32:41;;;;;;;2.85;2.63;;;3.40;99.90;;;;;;5451112;26;20430;-76
2024/04/21 07:35:11;;;;;;;5.72;3.40;;;3.50;99.90;;;;;;5448605;26;24907;-75
2024/04/21 07:37:37;;;;;;;5.50;2.95;;;3.50;99.90;;;;;;5462563;26;20251;-76
2024/04/21 07:40:06;;;;;;;4.82;3.38;;;3.40;99.90;;;;;;5459293;26;20248;-75
2024/04/21 07:42:32;;;;;;;2.88;2.60;;;3.40;99.90;;;;;;5461428;26;20245;-75
2024/04/21 07:45:04;;;;;;;4.35;2.72;;;3.50;99.90;;;;;;5448291;26;20245;-76
2024/04/21 07:47:31;;;;;;;5.05;2.90;;;3.50;99.90;;;;;;5451289;26;20692;-74
2024/04/21 07:50:00;;;;;;;6.80;2.85;;;3.50;99.90;;;;;;5453339;26;20237;-75
2024/04/21 07:52:27;;;;;;;7.88;3.70;;;3.60;99.90;;;;;;5475830;26;20244;-76
2024/04/21 07:54:55;;;;;;;4.63;3.47;;;3.70;99.90;;;;;;5452933;26;20238;-76
2024/04/21 07:57:22;;;;;;;3.28;2.50;;;3.80;99.90;;;;;;5477281;26;20330;-77
2024/04/21 07:59:50;;;;;;;7.32;3.25;;;3.80;99.90;;;;;;5438734;26;20272;-69
2024/04/21 08:02:19;;;;;;;4.60;3.42;;;3.90;99.90;;;;;;5472147;26;20250;-73
2024/04/21 08:04:48;;;;;;;4.80;2.47;;;4.00;99.90;;;;;;5465916;26;20270;-72
2024/04/21 08:07:14;;;;;;;5.10;3.00;;;3.80;99.90;;;;;;5460550;26;20272;-72
2024/04/21 08:09:43;;;;;;;2.95;2.40;;;3.80;99.90;;;;;;5454097;26;20770;-72
2024/04/21 08:12:09;;;;;;;6.90;2.65;;;3.90;99.90;;;;;;5457189;26;20288;-72
2024/04/21 08:14:38;;;;;;;2.38;2.17;;;3.80;99.90;;;;;;5466898;26;20310;-72
2024/04/21 08:17:04;;;;;;;4.75;2.63;;;4.10;99.90;;;;;;5461952;26;20259;-72
2024/04/21 08:19:36;;;;;;;2.40;2.13;;;4.20;99.90;;;;;;5467078;26;20267;-72
2024/04/21 08:22:02;;;;;;;7.13;1.95;;;4.00;99.90;;;;;;5459025;26;20262;-72
2024/04/21 08:24:31;;;;;;;4.50;2.80;;;4.00;99.90;;;;;;5456835;26;20276;-71
2024/04/21 08:26:57;;;;;;;2.65;2.17;;;3.90;99.90;;;;;;5449291;26;20273;-72
2024/04/21 08:29:26;;;;;;;2.55;2.22;;;3.90;99.90;;;;;;5466546;26;20240;-71
2024/04/21 08:31:52;;;;;;;4.05;1.90;;;3.90;99.90;;;;;;5449520;26;20279;-72
2024/04/21 08:34:22;;;;;;;1.90;1.75;;;3.90;99.90;;;;;;5450803;26;20273;-71
2024/04/21 08:36:51;;;;;;;2.28;1.75;;;3.90;99.90;;;;;;5458456;26;20583;-72
2024/04/21 08:39:20;;;;;;;2.83;1.83;;;4.00;99.90;;;;;;5466050;26;20249;-71
2024/04/21 08:41:47;;;;;;;5.57;2.10;;;4.00;99.90;;;;;;5465931;26;20253;-73
2024/04/21 08:44:17;;;;;;;3.50;1.95;;;4.00;99.90;;;;;;5461246;26;20247;-74
2024/04/21 08:46:44;;;;;;;6.03;3.13;;;4.10;99.90;;;;;;5451081;26;20812;-73
2024/04/21 08:49:13;;;;;;;3.85;2.22;;;4.30;99.90;;;;;;5456885;26;20242;-73
2024/04/21 08:51:41;;;;;;;5.93;1.80;;;4.30;99.90;;;;;;5456095;26;20247;-73
2024/04/21 08:54:12;;;;;;;2.42;1.77;;;4.30;99.90;;;;;;5460830;26;20778;-73
2024/04/21 08:56:44;;;;;;;2.25;1.85;;;4.30;99.90;;;;;;5453602;26;20251;-73
2024/04/21 08:59:14;;;;;;;7.30;1.88;;;4.60;99.90;;;;;;5457377;26;20280;-73
2024/04/21 09:01:41;;;;;;;4.35;1.70;;;4.60;99.90;;;;;;5457203;26;20277;-73
2024/04/21 09:04:11;;;;;;;3.50;1.45;;;4.70;99.90;;;;;;5448446;26;20281;-73
2024/04/21 09:06:39;;;;;;;1.90;1.55;;;4.90;99.90;;;;;;5458242;26;20263;-73
2024/04/21 09:09:08;;;;;;;1.55;1.45;;;5.10;99.60;;;;;;5448068;26;20296;-73
2024/04/21 09:11:39;;;;;;;2.05;1.85;;;5.00;98.60;;;;;;5458978;26;20240;-72
2024/04/21 09:14:08;;;;;;;2.53;1.63;;;4.70;98.20;;;;;;5466299;26;20275;-73
2024/04/21 09:16:34;;;;;;;9.70;3.78;;;4.60;98.00;;;;;;5459038;26;20584;-73
2024/04/21 09:19:05;;;;;;;5.65;1.70;;;4.70;98.00;;;;;;5449515;26;20250;-73
2024/04/21 09:21:33;;;;;;;1.50;1.40;;;4.70;97.70;;;;;;5453945;26;20247;-74
2024/04/21 09:24:03;;;;;;;3.00;2.03;;;4.80;98.00;;;;;;5453498;26;20238;-74
2024/04/21 09:26:29;;;;;;;2.03;1.83;;;4.60;97.30;;;;;;5444417;26;20286;-73
2024/04/21 09:29:01;;;;;;;2.13;1.92;;;4.40;97.80;;;;;;5483243;26;20264;-74
2024/04/21 09:31:27;;;;;;;1.65;1.55;;;4.40;97.40;;;;;;5476567;26;20266;-74
2024/04/21 09:33:56;;;;;;;4.97;1.85;;;4.40;98.00;;;;;;5475077;26;20253;-74
2024/04/21 09:36:23;;;;;;;3.03;2.00;;;4.40;98.30;;;;;;5459956;26;20833;-74
2024/04/21 09:38:54;;;;;;;3.17;1.75;;;4.30;98.40;;;;;;5472988;26;20242;-74
2024/04/21 09:41:24;;;;;;;4.93;1.85;;;4.30;98.80;;;;;;5468972;26;20589;-74
2024/04/21 09:43:55;;;;;;;2.50;1.90;;;4.60;99.10;;;;;;5479709;26;20234;-74
2024/04/21 09:46:25;;;;;;;2.28;1.50;;;4.80;99.20;;;;;;5465125;26;20290;-74
2024/04/21 09:48:54;;;;;;;3.72;1.95;;;5.00;98.60;;;;;;5452875;26;20242;-74
2024/04/21 09:51:20;;;;;;;4.32;2.05;;;5.20;98.20;;;;;;5479936;26;20255;-74
2024/04/21 09:53:51;;;;;;;2.40;1.65;;;5.20;97.30;;;;;;5475722;26;20251;-74
2024/04/21 09:56:20;;;;;;;2.55;2.08;;;5.30;96.60;;;;;;5476139;26;20286;-74
2024/04/21 09:58:50;;;;;;;4.28;1.55;;;5.40;95.40;;;;;;5447039;26;20285;-74
2024/04/21 10:01:26;;;;;;;1.50;1.40;;;5.60;96.10;;;;;;5453080;26;20326;-74
2024/04/21 10:04:00;;;;;;;2.33;1.65;;;5.60;95.80;;;;;;5469776;26;20755;-74
2024/04/21 10:06:29;;;;;;;4.10;1.92;;;5.40;93.90;;;;;;5463968;26;20262;-74
2024/04/21 10:09:03;;;;;;;2.88;1.80;;;5.50;95.00;;;;;;5473857;26;20641;-74
2024/04/21 10:11:29;;;;;;;1.40;1.20;;;5.60;95.30;;;;;;5448832;26;20566;-74
2024/04/21 10:14:01;;;;;;;2.58;1.80;;;5.60;94.50;;;;;;5471721;26;20619;-74
2024/04/21 10:16:30;;;;;;;2.85;1.40;;;5.70;94.80;;;;;;5469297;26;20752;-74
2024/04/21 10:19:05;;;;;;;2.08;1.60;;;6.00;93.80;;;;;;5455361;26;20251;-74
2024/04/21 10:21:32;;;;;;;1.17;1.05;;;6.50;94.60;;;;;;5464040;26;20236;-74
2024/04/21 10:24:02;;;;;;;1.38;1.23;;;6.60;92.10;;;;;;5450594;26;20270;-74
2024/04/21 10:26:29;;;;;;;2.42;2.22;;;6.40;91.10;;;;;;5467926;26;20239;-74
2024/04/21 10:29:08;;;;;;;2.30;1.40;;;6.20;90.40;;;;;;5480005;26;20767;-73
2024/04/21 10:31:38;;;;;;;2.70;1.60;;;6.10;91.90;;;;;;5469871;26;20283;-73
2024/04/21 10:34:11;;;;;;;1.15;1.05;;;6.00;91.40;;;;;;5459914;26;20242;-73
2024/04/21 10:36:41;;;;;;;1.40;1.27;;;6.10;92.50;;;;;;5459775;26;20252;-73
2024/04/21 10:39:10;;;;;;;3.88;1.40;;;6.30;91.90;;;;;;5461793;26;20616;-73
2024/04/21 10:41:43;;;;;;;3.35;1.30;;;6.40;91.90;;;;;;5475074;26;20244;-73
2024/04/21 10:44:13;;;;;;;6.10;1.45;;;6.90;91.70;;;;;;5470138;26;20291;-75
2024/04/21 10:46:43;;;;;;;2.22;1.40;;;7.10;88.90;;;;;;5450957;26;20560;-73
2024/04/21 10:49:12;;;;;;;1.90;1.60;;;7.20;90.20;;;;;;5446077;26;20248;-74
2024/04/21 10:51:39;;;;;;;2.28;1.38;;;7.50;88.70;;;;;;5447692;26;20628;-74
2024/04/21 10:54:11;;;;;;;2.17;1.55;;;7.70;85.80;;;;;;5460238;26;20244;-74
2024/04/21 10:56:38;;;;;;;1.20;1.10;;;7.90;87.00;;;;;;5467777;26;20291;-75
2024/04/21 10:59:08;;;;;;;2.28;1.30;;;7.80;85.50;;;;;;5457229;26;20278;-74
2024/04/21 11:01:34;;;;;;;3.00;2.07;;;7.70;80.20;;;;;;5469006;26;20315;-73
2024/04/21 11:04:06;;;;;;;3.60;1.63;;;7.50;80.20;;;;;;5456428;26;20649;-74
2024/04/21 11:06:32;;;;;;;1.73;1.30;;;7.30;79.50;;;;;;5451325;26;20944;-74
2024/04/21 11:09:01;;;;;;;1.73;1.30;;;7.30;79.70;;;;;;5468360;26;20567;-74
2024/04/21 11:11:28;;;;;;;2.37;1.43;;;7.30;82.30;;;;;;5466438;26;20546;-74
2024/04/21 11:13:57;;;;;;;1.27;1.17;;;7.30;79.70;;;;;;5450514;26;20982;-74
2024/04/21 11:16:24;;;;;;;3.33;1.27;;;7.60;78.80;;;;;;5466411;26;20243;-74
2024/04/21 11:18:53;;;;;;;6.17;1.60;;;7.90;82.20;;;;;;5456925;26;21112;-74
2024/04/21 11:21:22;;;;;;;3.03;1.30;;;7.80;80.10;;;;;;5474247;26;20558;-74
2024/04/21 11:23:51;;;;;;;1.17;1.07;;;7.90;83.20;;;;;;5482737;26;20556;-75
2024/04/21 11:26:17;;;;;;;4.70;1.40;;;7.90;82.00;;;;;;5452383;26;20553;-74
2024/04/21 11:28:46;;;;;;;2.20;1.73;;;7.60;78.70;;;;;;5452519;26;20599;-75
2024/04/21 11:31:13;;;;;;;2.42;1.60;;;7.00;78.90;;;;;;5468712;26;20601;-74
2024/04/21 11:33:42;;;;;;;3.67;1.40;;;6.80;83.40;;;;;;5449947;26;20295;-74
2024/04/21 11:36:12;;;;;;;1.50;1.40;;;6.80;85.40;;;;;;5456687;26;20278;-74
2024/04/21 11:38:44;;;;;;;2.08;1.50;;;6.50;85.50;;;;;;5447014;26;20244;-74
2024/04/21 11:41:12;;;;;;;1.65;1.52;;;6.80;87.20;;;;;;5443825;26;20240;-74
2024/04/21 11:43:41;;;;;;;2.43;1.57;;;7.10;87.90;;;;;;5453117;26;20273;-74
2024/04/21 11:46:08;;;;;;;3.97;1.83;;;7.00;87.80;;;;;;5445994;26;20674;-74
2024/04/21 11:48:38;;;;;;;4.05;1.98;;;6.80;89.20;;;;;;5457048;26;20291;-74
2024/04/21 11:51:05;;;;;;;2.03;1.83;;;6.90;90.20;;;;;;5441893;26;20347;-74
2024/04/21 11:53:34;;;;;;;4.25;1.92;;;6.80;90.40;;;;;;5453175;26;20245;-74
2024/04/21 11:56:06;;;;;;;5.10;1.70;;;6.80;89.70;;;;;;5444627;26;20256;-74
2024/04/21 11:58:33;;;;;;;3.30;2.00;;;7.20;86.10;;;;;;5448129;26;20765;-74
2024/04/21 12:01:03;;;;;;;1.70;1.60;;;8.10;84.30;;;;;;5441780;26;20573;-74
2024/04/21 12:03:29;;;;;;;2.60;1.53;;;9.00;85.40;;;;;;5437842;26;20552;-74
2024/04/21 12:05:58;;;;;;;2.50;2.30;;;10.00;80.30;;;;;;5444834;26;20585;-73
2024/04/21 12:08:24;;;;;;;3.63;1.50;;;10.20;75.80;;;;;;5442916;26;20597;-75
2024/04/21 12:10:53;;;;;;;1.40;1.30;;;10.80;77.00;;;;;;5442074;26;20565;-75
2024/04/21 12:13:22;;;;;;;4.73;2.37;;;10.70;73.50;;;;;;5441542;26;20573;-75
2024/04/21 12:15:51;;;;;;;2.37;1.57;;;10.90;71.50;;;;;;5447700;26;20643;-75
2024/04/21 12:18:17;;;;;;;3.20;1.50;;;10.50;70.90;;;;;;5446461;26;20563;-75
2024/04/21 12:20:46;;;;;;;3.50;1.60;;;9.10;74.40;;;;;;5447988;26;20589;-75
2024/04/21 12:23:12;;;;;;;1.33;1.23;;;7.80;78.30;;;;;;5445519;26;20567;-74
2024/04/21 12:25:41;;;;;;;1.33;1.23;;;6.40;84.80;;;;;;5445508;26;20647;-74
2024/04/21 12:28:07;;;;;;;7.20;1.50;;;5.70;87.80;;;;;;5453925;26;20616;-74
2024/04/21 12:30:40;;;;;;;3.33;1.50;;;5.80;91.20;;;;;;5439074;26;20581;-75
2024/04/21 12:33:06;;;;;;;1.65;1.45;;;5.80;90.50;;;;;;5456901;26;20726;-73
2024/04/21 12:35:35;;;;;;;3.80;1.70;;;5.60;90.50;;;;;;5442582;26;20673;-72
2024/04/21 12:38:01;;;;;;;1.77;1.42;;;5.50;89.70;;;;;;5453617;26;21190;-72
2024/04/21 12:40:30;;;;;;;4.43;1.40;;;5.70;90.90;;;;;;5452859;26;20237;-72
2024/04/21 12:42:56;;;;;;;3.10;1.58;;;5.60;90.30;;;;;;5457333;26;20251;-72
2024/04/21 12:45:25;;;;;;;1.67;1.40;;;5.70;90.20;;;;;;5470812;26;20251;-72
2024/04/21 12:47:54;;;;;;;5.28;1.52;;;5.70;89.50;;;;;;5466450;26;20704;-72
2024/04/21 12:50:23;;;;;;;3.80;1.50;;;5.90;90.40;;;;;;5462184;26;20269;-72
2024/04/21 12:52:49;;;;;;;2.20;2.00;;;6.20;91.10;;;;;;5449918;26;20762;-72
2024/04/21 12:55:18;;;;;;;7.07;2.25;;;6.30;90.10;;;;;;5446230;26;20282;-72
2024/04/21 12:57:45;;;;;;;2.05;1.88;;;6.40;90.50;;;;;;5458937;26;20251;-71
2024/04/21 13:00:14;;;;;;;12.10;2.22;;;6.70;90.10;;;;;;5455236;26;20772;-71
2024/04/21 13:02:40;;;;;;;4.10;2.10;;;7.10;90.40;;;;;;5465624;26;20243;-73